createdAt,value
2023-05-04T00:00:53.941Z,5.10
2023-05-04T00:03:21.833Z,3.97
2023-05-04T00:05:49.499Z,4.88
2023-05-04T00:08:17.660Z,5.13
2023-05-04T00:10:45.321Z,4.35
2023-05-04T00:13:12.965Z,4.63
2023-05-04T00:15:42.231Z,5.60
2023-05-04T00:18:09.789Z,5.55
2023-05-04T00:20:37.408Z,6.78
2023-05-04T00:23:04.992Z,5.03
2023-05-04T00:25:32.853Z,4.18
2023-05-04T00:28:00.730Z,7.97
2023-05-04T00:30:30.817Z,5.90
2023-05-04T00:32:59.900Z,5.65
2023-05-04T00:35:27.513Z,6.15
2023-05-04T00:37:55.367Z,5.38
2023-05-04T00:40:23.187Z,4.68
2023-05-04T00:42:50.890Z,6.25
2023-05-04T00:45:19.095Z,3.95
2023-05-04T00:47:46.741Z,4.63
2023-05-04T00:50:15.698Z,3.80
2023-05-04T00:52:45.050Z,4.53
2023-05-04T00:55:14.347Z,5.60
2023-05-04T00:57:42.620Z,4.75
2023-05-04T01:00:13.133Z,5.13
2023-05-04T01:02:41.113Z,6.22
2023-05-04T01:05:09.947Z,4.60
2023-05-04T01:07:45.302Z,4.80
2023-05-04T01:10:18.720Z,8.52
2023-05-04T01:15:21.575Z,6.03
2023-05-04T01:17:49.473Z,6.90
2023-05-04T01:20:17.393Z,5.07
2023-05-04T01:22:46.512Z,5.20
2023-05-04T01:25:14.195Z,6.47
2023-05-04T01:27:47.954Z,4.57
2023-05-04T01:30:19.873Z,5.88
2023-05-04T01:32:49.293Z,7.13
2023-05-04T01:35:17.155Z,3.95
2023-05-04T01:37:48.746Z,5.75
2023-05-04T01:40:16.618Z,4.40
2023-05-04T01:42:44.114Z,5.10
2023-05-04T01:45:13.512Z,4.10
2023-05-04T01:47:41.724Z,5.57
2023-05-04T01:50:09.822Z,5.03
2023-05-04T01:52:37.478Z,4.80
2023-05-04T01:55:07.952Z,8.15
2023-05-04T01:57:35.559Z,4.85
2023-05-04T02:00:03.905Z,4.30
2023-05-04T02:02:43.269Z,4.00
2023-05-04T02:05:12.856Z,5.10
2023-05-04T02:07:40.448Z,8.32
2023-05-04T02:10:10.694Z,4.53
2023-05-04T02:12:38.421Z,6.00
2023-05-04T02:15:06.902Z,5.32
2023-05-04T02:17:34.690Z,4.63
2023-05-04T02:20:04.637Z,5.95
2023-05-04T02:22:32.636Z,4.43
2023-05-04T02:25:00.161Z,5.50
2023-05-04T02:27:28.997Z,6.10
2023-05-04T02:29:58.336Z,5.32
2023-05-04T02:32:26.289Z,6.03
2023-05-04T02:34:54.231Z,6.72
2023-05-04T02:37:22.320Z,4.88
2023-05-04T02:39:50.006Z,6.13
2023-05-04T02:42:17.762Z,7.43
2023-05-04T02:44:46.681Z,5.65
2023-05-04T02:47:14.210Z,4.85
2023-05-04T02:53:54.089Z,5.55
2023-05-04T02:56:21.808Z,5.22
2023-05-04T02:58:49.387Z,6.00
2023-05-04T03:01:18.347Z,6.20
2023-05-04T03:03:46.091Z,5.40
2023-05-04T03:06:13.735Z,4.82
2023-05-04T03:08:41.280Z,5.32
2023-05-04T03:11:08.947Z,4.70
2023-05-04T03:13:36.563Z,6.03
2023-05-04T03:16:05.496Z,6.32
2023-05-04T03:21:20.227Z,5.93
2023-05-04T03:23:48.932Z,6.95
2023-05-04T03:26:17.395Z,5.57
2023-05-04T03:28:45.431Z,5.25
2023-05-04T03:31:13.036Z,4.57
2023-05-04T03:33:42.407Z,6.40
2023-05-04T03:36:10.276Z,4.70
2023-05-04T03:38:39.669Z,6.47
2023-05-04T03:41:07.444Z,4.95
2023-05-04T03:43:35.021Z,5.95
2023-05-04T03:46:02.996Z,6.15
2023-05-04T03:48:30.602Z,7.72
2023-05-04T03:50:59.625Z,6.65
2023-05-04T03:53:27.368Z,8.10
2023-05-04T03:55:55.065Z,5.82
2023-05-04T03:58:22.979Z,6.93
2023-05-04T04:00:50.558Z,4.60
2023-05-04T04:03:19.046Z,6.32
2023-05-04T04:05:46.746Z,5.07
2023-05-04T04:08:15.671Z,4.53
2023-05-04T04:10:43.455Z,6.32
2023-05-04T04:13:11.167Z,6.65
2023-05-04T04:15:38.874Z,5.20
2023-05-04T04:18:06.793Z,8.07
2023-05-04T04:20:34.423Z,5.88
2023-05-04T04:23:01.978Z,5.32
2023-05-04T04:25:31.508Z,5.05
2023-05-04T04:27:59.103Z,5.75
2023-05-04T04:30:26.607Z,4.88
2023-05-04T04:32:56.904Z,6.20
2023-05-04T04:35:24.616Z,5.35
2023-05-04T04:37:52.232Z,6.25
2023-05-04T04:40:19.770Z,5.45
2023-05-04T04:42:48.764Z,6.93
2023-05-04T04:45:16.390Z,6.25
2023-05-04T04:47:45.135Z,8.32
2023-05-04T04:50:13.136Z,5.60
2023-05-04T04:52:41.358Z,6.30
2023-05-04T04:55:09.754Z,10.80
2023-05-04T04:57:37.337Z,5.93
2023-05-04T05:00:09.414Z,6.13
2023-05-04T05:02:37.568Z,6.38
2023-05-04T05:05:05.940Z,6.35
2023-05-04T05:07:33.923Z,7.88
2023-05-04T05:10:01.582Z,8.38
2023-05-04T05:12:29.457Z,7.63
2023-05-04T05:14:57.105Z,9.10
2023-05-04T05:17:27.530Z,9.18
2023-05-04T05:19:55.117Z,8.27
2023-05-04T05:22:22.736Z,6.70
2023-05-04T05:24:50.266Z,7.95
2023-05-04T05:27:18.083Z,7.90
2023-05-04T05:29:45.661Z,6.45
2023-05-04T05:32:13.347Z,10.15
2023-05-04T05:34:42.640Z,6.40
2023-05-04T05:37:10.514Z,12.32
2023-05-04T05:39:38.100Z,8.27
2023-05-04T05:42:06.007Z,7.00
2023-05-04T05:44:37.302Z,9.40
2023-05-04T05:47:04.946Z,7.05
2023-05-04T05:49:32.798Z,9.95
2023-05-04T05:52:02.173Z,9.60
2023-05-04T05:54:30.845Z,9.93
2023-05-04T05:56:58.595Z,9.93
2023-05-04T05:59:26.217Z,12.13
2023-05-04T06:01:53.934Z,11.27
2023-05-04T06:04:21.567Z,9.52
2023-05-04T06:06:49.269Z,10.68
2023-05-04T06:09:18.209Z,12.77
2023-05-04T06:11:46.138Z,11.65
2023-05-04T06:14:13.672Z,12.57
2023-05-04T06:16:41.380Z,9.02
2023-05-04T06:19:09.099Z,12.88
2023-05-04T06:21:36.843Z,10.75
2023-05-04T06:24:04.740Z,9.25
2023-05-04T06:26:33.718Z,9.68
2023-05-04T06:29:01.312Z,10.30
2023-05-04T06:31:29.006Z,8.98
2023-05-04T06:33:57.691Z,9.88
2023-05-04T06:36:26.060Z,9.57
2023-05-04T06:38:55.582Z,8.70
2023-05-04T06:41:23.348Z,11.40
2023-05-04T06:43:52.245Z,12.75
2023-05-04T06:46:20.168Z,12.98
2023-05-04T06:48:47.794Z,9.57
2023-05-04T06:51:16.058Z,11.18
2023-05-04T06:53:43.639Z,9.23
2023-05-04T06:56:11.260Z,9.40
2023-05-04T06:58:38.905Z,8.27
2023-05-04T07:01:09.823Z,9.50
2023-05-04T07:03:38.750Z,10.68
2023-05-04T07:06:06.377Z,9.48
2023-05-04T07:08:34.719Z,10.93
2023-05-04T07:11:02.580Z,9.02
2023-05-04T07:13:30.257Z,10.48
2023-05-04T07:15:57.945Z,10.90
2023-05-04T07:18:26.909Z,9.10
2023-05-04T07:20:58.841Z,10.80
2023-05-04T07:23:33.827Z,9.63
2023-05-04T07:26:01.783Z,11.20
2023-05-04T07:28:29.398Z,11.02
2023-05-04T07:30:56.996Z,12.00
2023-05-04T07:33:25.621Z,8.23
2023-05-04T07:35:59.373Z,10.82
2023-05-04T07:38:27.355Z,12.68
2023-05-04T07:40:55.466Z,11.50
2023-05-04T07:43:23.332Z,17.17
2023-05-04T07:45:53.285Z,8.35
2023-05-04T07:48:21.199Z,8.85
2023-05-04T07:50:50.306Z,8.80
2023-05-04T07:53:20.659Z,11.80
2023-05-04T07:55:48.588Z,8.85
2023-05-04T07:58:16.691Z,8.43
2023-05-04T08:00:44.556Z,8.05
2023-05-04T08:03:12.237Z,9.38
2023-05-04T08:05:39.874Z,8.68
2023-05-04T08:08:09.290Z,9.98
2023-05-04T08:10:38.655Z,7.70
2023-05-04T08:13:06.658Z,8.43
2023-05-04T08:15:34.294Z,9.75
2023-05-04T08:18:02.050Z,8.77
2023-05-04T08:20:29.921Z,10.13
2023-05-04T08:22:57.935Z,8.38
2023-05-04T08:25:25.555Z,8.07
2023-05-04T08:27:54.537Z,8.85
2023-05-04T08:30:22.302Z,10.25
2023-05-04T08:32:51.109Z,8.77
2023-05-04T08:35:18.894Z,7.50
2023-05-04T08:37:46.587Z,8.48
2023-05-04T08:40:15.293Z,9.40
2023-05-04T08:42:47.904Z,7.13
2023-05-04T08:45:17.327Z,8.47
2023-05-04T08:47:45.418Z,9.80
2023-05-04T08:50:13.599Z,6.35
2023-05-04T08:52:46.145Z,7.88
2023-05-04T08:55:14.966Z,9.50
2023-05-04T08:57:44.378Z,7.55
2023-05-04T09:00:13.436Z,9.52
2023-05-04T09:02:42.734Z,7.70
2023-05-04T09:05:12.010Z,7.90
2023-05-04T09:07:39.627Z,11.93
2023-05-04T09:10:08.479Z,10.45
2023-05-04T09:12:37.561Z,8.73
2023-05-04T09:15:16.569Z,7.80
2023-05-04T09:17:57.831Z,9.93
2023-05-04T09:20:26.611Z,10.38
2023-05-04T09:23:06.929Z,8.23
2023-05-04T09:25:35.247Z,10.13
2023-05-04T09:28:02.821Z,5.93
2023-05-04T09:30:30.361Z,7.10
2023-05-04T09:32:59.372Z,9.43
2023-05-04T09:35:33.531Z,7.60
2023-05-04T09:38:02.230Z,10.57
2023-05-04T09:40:33.565Z,7.93
2023-05-04T09:43:01.287Z,8.10
2023-05-04T09:45:39.906Z,7.35
2023-05-04T09:48:19.042Z,8.48
2023-05-04T09:50:52.873Z,8.70
2023-05-04T09:53:23.204Z,7.60
2023-05-04T09:55:59.994Z,7.22
2023-05-04T09:58:31.149Z,5.97
2023-05-04T10:01:01.839Z,6.18
2023-05-04T10:03:31.698Z,6.50
2023-05-04T10:06:00.176Z,7.03
2023-05-04T10:08:28.498Z,5.22
2023-05-04T10:10:56.140Z,4.43
2023-05-04T10:13:24.181Z,7.55
2023-05-04T10:16:12.986Z,7.13
2023-05-04T10:19:02.246Z,4.97
2023-05-04T10:21:33.971Z,9.43
2023-05-04T10:24:31.160Z,5.55
2023-05-04T10:27:08.206Z,4.80
2023-05-04T10:29:36.052Z,7.80
2023-05-04T10:32:04.030Z,6.13
2023-05-04T10:34:34.609Z,3.90
2023-05-04T10:37:03.466Z,5.63
2023-05-04T10:39:32.816Z,4.38
2023-05-04T10:42:02.738Z,5.95
2023-05-04T10:44:31.449Z,6.38
2023-05-04T10:47:00.655Z,5.15
2023-05-04T10:49:28.452Z,3.78
2023-05-04T10:52:08.615Z,5.25
2023-05-04T10:54:37.044Z,5.50
2023-05-04T10:57:06.585Z,3.45
2023-05-04T10:59:36.608Z,5.38
2023-05-04T11:02:06.471Z,10.55
2023-05-04T11:04:34.564Z,4.47
2023-05-04T11:07:04.878Z,3.08
2023-05-04T11:09:38.843Z,3.53
2023-05-04T11:12:10.260Z,4.50
2023-05-04T11:14:42.275Z,5.65
2023-05-04T11:17:26.817Z,4.40
2023-05-04T11:19:54.886Z,3.63
2023-05-04T11:22:22.890Z,3.92
2023-05-04T11:24:52.818Z,4.43
2023-05-04T11:27:22.391Z,3.90
2023-05-04T11:29:56.864Z,4.03
2023-05-04T11:32:34.834Z,6.38
2023-05-04T11:35:02.764Z,5.97
2023-05-04T11:37:31.336Z,3.97
2023-05-04T11:40:00.495Z,3.60
2023-05-04T11:42:28.286Z,4.78
2023-05-04T11:44:56.909Z,2.78
2023-05-04T11:47:26.368Z,3.58
2023-05-04T11:49:54.294Z,2.30
2023-05-04T11:52:23.695Z,2.67
2023-05-04T11:54:56.815Z,2.78
2023-05-04T11:59:53.212Z,2.95
2023-05-04T12:02:21.359Z,4.57
2023-05-04T12:04:48.978Z,2.95
2023-05-04T12:07:16.801Z,3.10
2023-05-04T12:09:45.391Z,2.28
2023-05-04T12:12:13.116Z,5.97
2023-05-04T12:14:50.127Z,2.00
2023-05-04T12:17:17.665Z,2.20
2023-05-04T12:19:50.510Z,2.00
2023-05-04T12:22:18.360Z,3.00
2023-05-04T12:24:45.937Z,1.85
2023-05-04T12:27:14.092Z,2.65
2023-05-04T12:29:41.719Z,2.28
2023-05-04T12:32:10.624Z,2.85
2023-05-04T12:34:38.333Z,4.03
2023-05-04T12:37:06.169Z,3.10
2023-05-04T12:39:34.264Z,2.25
2023-05-04T12:42:02.059Z,1.55
2023-05-04T12:44:29.672Z,2.53
2023-05-04T12:46:57.420Z,2.47
2023-05-04T12:49:26.331Z,4.07
2023-05-04T12:51:53.939Z,3.15
2023-05-04T12:54:21.541Z,1.45
2023-05-04T12:56:49.106Z,3.08
2023-05-04T12:59:16.639Z,1.80
2023-05-04T13:01:44.305Z,2.13
2023-05-04T13:04:11.941Z,1.80
2023-05-04T13:06:42.410Z,2.78
2023-05-04T13:09:10.189Z,3.30
2023-05-04T13:11:37.701Z,1.77
2023-05-04T13:14:05.482Z,2.85
2023-05-04T13:16:33.608Z,2.33
2023-05-04T13:19:01.162Z,2.90
2023-05-04T13:21:28.725Z,3.78
2023-05-04T13:23:59.182Z,3.05
2023-05-04T13:26:26.967Z,1.85
2023-05-04T13:28:54.492Z,1.63
2023-05-04T13:31:22.078Z,3.20
2023-05-04T13:33:50.417Z,1.92
2023-05-04T13:36:18.145Z,2.75
2023-05-04T13:38:45.723Z,1.63
2023-05-04T13:41:14.637Z,2.50
2023-05-04T13:43:42.176Z,5.78
2023-05-04T13:46:09.804Z,3.47
2023-05-04T13:48:37.399Z,2.30
2023-05-04T13:51:05.387Z,3.10
2023-05-04T13:53:32.897Z,2.05
2023-05-04T13:56:00.588Z,5.53
2023-05-04T13:58:29.463Z,2.35
2023-05-04T14:00:57.702Z,1.98
2023-05-04T14:03:25.480Z,2.58
2023-05-04T14:05:53.722Z,2.33
2023-05-04T14:08:21.330Z,4.10
2023-05-04T14:10:48.832Z,1.83
2023-05-04T14:13:16.947Z,2.83
2023-05-04T14:15:46.229Z,2.80
2023-05-04T14:18:13.850Z,1.98
2023-05-04T14:20:41.405Z,1.58
2023-05-04T14:23:08.958Z,5.85
2023-05-04T14:25:36.634Z,5.28
2023-05-04T14:28:04.405Z,2.42
2023-05-04T14:30:33.689Z,2.05
2023-05-04T14:33:03.648Z,2.78
2023-05-04T14:35:31.371Z,3.28
2023-05-04T14:37:58.937Z,3.08
2023-05-04T14:40:26.456Z,2.47
2023-05-04T14:42:54.022Z,2.00
2023-05-04T14:45:21.911Z,3.30
2023-05-04T14:47:49.460Z,4.82
2023-05-04T14:50:18.627Z,4.25
2023-05-04T14:52:46.212Z,2.20
2023-05-04T14:55:14.248Z,3.03
2023-05-04T14:57:42.035Z,3.78
2023-05-04T15:00:11.190Z,2.80
2023-05-04T15:02:39.314Z,1.67
2023-05-04T15:05:09.692Z,2.50
2023-05-04T15:07:38.642Z,3.17
2023-05-04T15:10:08.157Z,2.13
2023-05-04T15:12:36.183Z,2.75
2023-05-04T15:15:03.812Z,2.03
2023-05-04T15:17:31.702Z,3.22
2023-05-04T15:19:59.283Z,2.20
2023-05-04T15:22:26.822Z,2.90
2023-05-04T15:24:56.557Z,3.00
2023-05-04T15:27:24.139Z,2.90
2023-05-04T15:29:51.838Z,2.40
2023-05-04T15:32:19.413Z,3.35
2023-05-04T15:34:57.427Z,3.60
2023-05-04T15:37:31.802Z,3.55
2023-05-04T15:40:02.501Z,4.05
2023-05-04T15:42:30.450Z,4.55
2023-05-04T15:44:58.126Z,1.88
2023-05-04T15:47:25.724Z,2.97
2023-05-04T15:49:53.300Z,2.40
2023-05-04T15:52:20.808Z,3.83
2023-05-04T15:54:48.345Z,2.83
2023-05-04T15:57:17.184Z,1.35
2023-05-04T15:59:47.447Z,1.85
2023-05-04T16:02:15.085Z,4.85
2023-05-04T16:04:42.663Z,2.00
2023-05-04T16:07:10.980Z,4.30
2023-05-04T16:09:38.528Z,2.55
2023-05-04T16:12:06.707Z,4.55
2023-05-04T16:14:35.977Z,2.83
2023-05-04T16:17:03.633Z,2.97
2023-05-04T16:19:31.439Z,2.58
2023-05-04T16:21:59.140Z,2.80
2023-05-04T16:24:26.762Z,2.20
2023-05-04T16:26:54.371Z,1.58
2023-05-04T16:29:21.966Z,3.70
2023-05-04T16:31:50.877Z,5.72
2023-05-04T16:34:18.452Z,1.88
2023-05-04T16:36:46.019Z,1.52
2023-05-04T16:39:14.479Z,2.78
2023-05-04T16:41:46.449Z,3.33
2023-05-04T16:46:41.450Z,4.13
2023-05-04T16:49:11.889Z,5.65
2023-05-04T16:51:41.832Z,3.97
2023-05-04T16:54:09.453Z,5.38
2023-05-04T16:56:37.267Z,2.30
2023-05-04T16:59:05.605Z,2.75
2023-05-04T17:01:33.730Z,3.92
2023-05-04T17:04:01.564Z,3.20
2023-05-04T17:06:31.016Z,2.67
2023-05-04T17:08:58.561Z,2.85
2023-05-04T17:11:26.745Z,4.93
2023-05-04T17:13:54.499Z,3.00
2023-05-04T17:16:22.030Z,2.35
2023-05-04T17:18:49.808Z,4.30
2023-05-04T17:21:17.566Z,2.63
2023-05-04T17:23:46.466Z,3.55
2023-05-04T17:26:14.019Z,3.67
2023-05-04T17:28:41.592Z,2.60
2023-05-04T17:31:10.997Z,2.80
2023-05-04T17:33:38.807Z,3.30
2023-05-04T17:36:07.657Z,3.15
2023-05-04T17:38:35.507Z,4.20
2023-05-04T17:41:04.575Z,3.47
2023-05-04T17:43:32.267Z,2.97
2023-05-04T17:46:00.214Z,3.35
2023-05-04T17:48:28.245Z,1.65
2023-05-04T17:50:56.256Z,3.28
2023-05-04T17:53:23.925Z,4.25
2023-05-04T17:55:51.473Z,2.88
2023-05-04T17:58:20.457Z,5.03
2023-05-04T18:00:49.091Z,3.40
2023-05-04T18:03:18.240Z,3.83
2023-05-04T18:05:46.670Z,5.35
2023-05-04T18:08:14.742Z,5.18
2023-05-04T18:10:42.414Z,2.50
2023-05-04T18:13:10.087Z,3.40
2023-05-04T18:15:39.276Z,2.75
2023-05-04T18:18:06.891Z,2.72
2023-05-04T18:20:34.587Z,3.13
2023-05-04T18:23:02.109Z,3.53
2023-05-04T18:25:29.689Z,4.22
2023-05-04T18:27:58.544Z,2.90
2023-05-04T18:30:26.677Z,2.42
2023-05-04T18:32:55.770Z,3.30
2023-05-04T18:35:23.352Z,1.77
2023-05-04T18:37:50.922Z,2.50
2023-05-04T18:40:18.566Z,4.07
2023-05-04T18:42:46.193Z,5.07
2023-05-04T18:45:13.922Z,3.72
2023-05-04T18:47:41.548Z,2.70
2023-05-04T18:50:11.572Z,4.10
2023-05-04T18:52:39.194Z,2.92
2023-05-04T18:55:07.965Z,2.97
2023-05-04T18:57:35.628Z,3.90
2023-05-04T19:00:03.308Z,3.70
2023-05-04T19:02:31.467Z,5.57
2023-05-04T19:04:59.187Z,5.20
2023-05-04T19:07:28.033Z,3.05
2023-05-04T19:09:56.189Z,3.65
2023-05-04T19:12:23.803Z,4.07
2023-05-04T19:14:51.836Z,4.68
2023-05-04T19:17:19.576Z,7.13
2023-05-04T19:19:47.134Z,4.60
2023-05-04T19:22:15.668Z,3.65
2023-05-04T19:24:44.731Z,3.22
2023-05-04T19:27:12.282Z,5.80
2023-05-04T19:29:39.861Z,2.95
2023-05-04T19:32:19.886Z,4.47
2023-05-04T19:34:51.778Z,3.58
2023-05-04T19:37:19.405Z,2.97
2023-05-04T19:39:48.363Z,4.28
2023-05-04T19:42:16.376Z,4.70
2023-05-04T19:44:43.933Z,4.45
2023-05-04T19:47:11.645Z,5.55
2023-05-04T19:49:39.572Z,3.63
2023-05-04T19:52:07.355Z,7.03
2023-05-04T19:54:35.591Z,11.80
2023-05-04T19:57:04.677Z,5.22
2023-05-04T19:59:32.231Z,6.97
2023-05-04T20:02:00.049Z,6.05
2023-05-04T20:04:27.665Z,3.95
2023-05-04T20:06:55.228Z,7.50
2023-05-04T20:09:22.801Z,4.70
2023-05-04T20:11:50.314Z,4.70
2023-05-04T20:14:19.226Z,19.48
2023-05-04T20:16:46.971Z,6.55
2023-05-04T20:19:14.895Z,5.93
2023-05-04T20:21:42.472Z,5.30
2023-05-04T20:24:11.846Z,5.22
2023-05-04T20:26:39.452Z,5.45
2023-05-04T20:29:07.034Z,7.43
2023-05-04T20:31:36.255Z,21.70
2023-05-04T20:34:03.828Z,12.18
2023-05-04T20:36:31.555Z,6.38
2023-05-04T20:38:59.897Z,6.03
2023-05-04T20:41:27.480Z,11.05
2023-05-04T20:43:55.015Z,14.05
2023-05-04T20:46:22.886Z,6.22
2023-05-04T20:48:51.875Z,7.03
2023-05-04T20:51:19.474Z,5.38
2023-05-04T20:53:47.790Z,5.18
2023-05-04T20:56:15.561Z,4.38
2023-05-04T20:58:43.058Z,6.00
2023-05-04T21:01:10.666Z,5.70
2023-05-04T21:03:38.293Z,4.32
2023-05-04T21:06:07.536Z,4.97
2023-05-04T21:08:35.062Z,5.70
2023-05-04T21:11:02.581Z,4.13
2023-05-04T21:13:30.294Z,5.07
2023-05-04T21:15:59.348Z,5.55
2023-05-04T21:18:27.013Z,6.03
2023-05-04T21:20:54.731Z,5.75
2023-05-04T21:23:24.931Z,5.93
2023-05-04T21:26:00.780Z,5.47
2023-05-04T21:28:28.456Z,7.45
2023-05-04T21:30:56.084Z,7.45
2023-05-04T21:33:23.832Z,6.97
2023-05-04T21:35:51.551Z,4.57
2023-05-04T21:38:21.671Z,5.22
2023-05-04T21:40:51.110Z,4.30
2023-05-04T21:43:18.665Z,5.13
2023-05-04T21:45:46.173Z,4.00
2023-05-04T21:48:13.686Z,6.45
2023-05-04T21:50:41.243Z,5.18
2023-05-04T21:53:08.819Z,5.97
2023-05-04T21:55:36.472Z,7.68
2023-05-04T21:58:05.390Z,6.55
2023-05-04T22:00:33.103Z,5.18
2023-05-04T22:03:01.043Z,6.53
2023-05-04T22:05:28.640Z,7.03
2023-05-04T22:07:56.247Z,6.20
2023-05-04T22:10:24.014Z,6.20
2023-05-04T22:12:51.842Z,6.07
2023-05-04T22:15:20.779Z,4.60
2023-05-04T22:17:48.412Z,4.90
2023-05-04T22:20:16.262Z,5.45
2023-05-04T22:22:44.077Z,4.43
2023-05-04T22:25:11.833Z,5.00
2023-05-04T22:27:39.350Z,6.75
2023-05-04T22:30:08.776Z,5.28
2023-05-04T22:32:37.889Z,6.43
2023-05-04T22:35:06.223Z,5.93
2023-05-04T22:37:33.788Z,5.40
2023-05-04T22:40:04.357Z,9.48
2023-05-04T22:42:32.343Z,6.82
2023-05-04T22:44:59.927Z,7.45
2023-05-04T22:47:27.529Z,5.47
2023-05-04T22:49:56.910Z,6.35
2023-05-04T22:52:25.233Z,6.43
2023-05-04T22:54:52.887Z,4.78
2023-05-04T22:57:20.697Z,5.82
2023-05-04T22:59:48.330Z,6.63
2023-05-04T23:02:16.268Z,5.45
2023-05-04T23:04:43.961Z,5.28
2023-05-04T23:07:13.015Z,6.70
2023-05-04T23:09:43.150Z,5.50
2023-05-04T23:12:10.705Z,4.95
2023-05-04T23:14:38.459Z,7.32
2023-05-04T23:17:06.081Z,4.45
2023-05-04T23:19:33.666Z,4.80
2023-05-04T23:22:01.273Z,5.03
2023-05-04T23:24:30.192Z,5.35
2023-05-04T23:26:58.656Z,7.22
2023-05-04T23:29:26.307Z,8.45
2023-05-04T23:31:54.145Z,6.35
2023-05-04T23:34:21.893Z,4.63
2023-05-04T23:36:49.603Z,4.47
2023-05-04T23:39:17.255Z,6.22
2023-05-04T23:41:46.153Z,5.95
2023-05-04T23:44:13.777Z,7.32
2023-05-04T23:46:41.326Z,8.10
2023-05-04T23:49:08.853Z,7.53
2023-05-04T23:51:36.370Z,4.93
2023-05-04T23:54:04.176Z,6.45
2023-05-04T23:56:32.415Z,8.95
2023-05-04T23:59:01.599Z,7.95
